Time;durP1;ratioP1;P1;durP2;ratioP2;P2;SDS_P1;SDS_P2;PMS_P1;PMS_P2;Temp;Humidity;BMP_temperature;BMP_pressure;BME280_temperature;BME280_humidity;BME280_pressure;Samples;Min_cycle;Max_cycle;Signal;HPM_P1;HPM_P2
2023/09/28 00:00:43;;;;;;;17.17;15.05;;;16.20;99.90;;;-141.84;88.15;20328.06;4983302;28;20234;-59
2023/09/28 00:03:10;;;;;;;16.52;14.93;;;16.20;99.90;;;-141.84;88.18;20350.41;4983993;28;20292;-60
2023/09/28 00:05:39;;;;;;;17.30;15.50;;;16.20;99.90;;;-141.84;87.48;20352.44;4976841;28;20206;-60
2023/09/28 00:08:07;;;;;;;17.02;15.00;;;16.20;99.90;;;-141.84;87.17;20376.84;4983591;28;20235;-59
2023/09/28 00:10:36;;;;;;;17.83;15.48;;;16.30;99.90;;;-141.84;87.35;20346.34;4983028;28;20668;-58
2023/09/28 00:13:05;;;;;;;15.85;14.30;;;16.30;99.90;;;-141.84;87.73;20346.34;4982956;28;20597;-58
2023/09/28 00:15:32;;;;;;;18.17;14.98;;;16.30;99.90;;;-141.84;87.92;20301.63;4975403;28;20393;-59
2023/09/28 00:18:00;;;;;;;16.67;14.98;;;16.20;99.90;;;-141.84;88.19;20291.47;4983791;28;20301;-59
2023/09/28 00:20:28;;;;;;;16.65;14.85;;;16.20;99.90;;;-141.84;88.14;20321.97;4982921;28;20242;-59
2023/09/28 00:22:57;;;;;;;16.73;14.98;;;16.20;99.90;;;-141.84;88.06;20334.16;4983060;28;20292;-59
2023/09/28 00:25:24;;;;;;;16.67;14.80;;;16.20;99.90;;;-141.84;88.20;20303.66;4974901;28;20273;-60
2023/09/28 00:27:55;;;;;;;17.45;14.50;;;16.10;99.90;;;-141.84;88.34;20283.34;4983330;28;20262;-59
2023/09/28 00:30:26;;;;;;;17.33;15.23;;;16.10;99.90;;;-141.84;88.57;20315.88;4983137;28;20226;-58
2023/09/28 00:32:57;;;;;;;17.63;14.98;;;16.10;99.90;;;-141.84;88.54;20315.88;4983340;28;20627;-59
2023/09/28 00:35:25;;;;;;;16.80;14.55;;;16.10;99.90;;;-141.84;88.62;20317.91;4978829;28;20248;-60
2023/09/28 00:37:53;;;;;;;15.90;14.40;;;16.10;99.90;;;-141.84;88.46;20299.59;4987581;28;20234;-58
2023/09/28 00:40:28;;;;;;;16.48;14.52;;;16.00;99.90;;;-141.84;88.61;20307.72;4987101;28;20714;-60
2023/09/28 00:42:58;;;;;;;17.98;15.25;;;16.10;99.90;;;-141.84;88.33;20301.63;4987009;28;20309;-58
2023/09/28 00:45:27;;;;;;;17.73;15.18;;;16.10;99.90;;;-141.84;88.17;20321.97;4978913;28;20611;-59
2023/09/28 00:47:59;;;;;;;16.77;14.93;;;16.10;99.90;;;-141.84;88.17;20303.66;4987201;28;20294;-58
2023/09/28 00:50:31;;;;;;;19.25;14.57;;;16.10;99.90;;;-141.84;88.09;20305.69;4986753;28;20766;-59
2023/09/28 00:53:02;;;;;;;16.33;14.63;;;16.10;99.90;;;-141.84;88.12;20319.94;4986858;28;20231;-58
2023/09/28 00:55:31;;;;;;;16.20;14.63;;;16.10;99.90;;;-141.84;88.21;20297.56;4979881;28;20239;-59
2023/09/28 00:58:02;;;;;;;16.13;14.43;;;16.10;99.90;;;-141.84;88.15;20273.19;4986579;28;20330;-59
2023/09/28 01:00:32;;;;;;;15.50;13.77;;;16.10;99.90;;;-141.84;88.51;20317.91;4986367;28;20277;-59
2023/09/28 01:03:05;;;;;;;18.65;14.95;;;16.00;99.90;;;-141.84;88.66;20315.88;4987080;28;20219;-60
2023/09/28 01:05:39;;;;;;;16.02;14.48;;;16.00;99.90;;;-141.84;88.72;20260.97;4979738;28;20227;-59
2023/09/28 01:08:09;;;;;;;16.02;14.35;;;16.00;99.90;;;-141.84;88.82;20269.13;4986733;28;20710;-58
2023/09/28 01:10:40;;;;;;;18.02;15.52;;;16.00;99.90;;;-141.84;88.84;20311.78;4986991;28;20235;-59
2023/09/28 01:13:11;;;;;;;17.00;15.25;;;16.00;99.90;;;-141.84;88.89;20279.28;4986308;28;20227;-58
2023/09/28 01:15:40;;;;;;;17.95;15.48;;;16.00;99.90;;;-141.84;88.92;20289.44;4978570;28;20666;-58
2023/09/28 01:18:09;;;;;;;16.27;14.68;;;15.90;99.90;;;-141.84;88.71;20285.38;4986146;28;20609;-59
2023/09/28 01:20:38;;;;;;;15.60;14.00;;;15.90;99.90;;;-141.84;88.56;20263.00;4986423;28;20215;-58
2023/09/28 01:23:08;;;;;;;16.48;14.88;;;15.90;99.90;;;-141.84;88.70;20277.25;4985708;28;20747;-59
2023/09/28 01:25:39;;;;;;;15.70;14.18;;;15.90;99.90;;;-141.84;88.78;20254.88;4978762;28;20267;-58
2023/09/28 01:28:07;;;;;;;16.33;14.23;;;15.90;99.90;;;-141.84;88.83;20271.16;4986335;28;20259;-59
2023/09/28 01:30:36;;;;;;;15.82;14.23;;;15.90;99.90;;;-141.84;88.73;20281.31;4985903;28;20290;-58
2023/09/28 01:33:04;;;;;;;17.88;15.68;;;15.90;99.90;;;-141.84;88.65;20285.38;4986151;28;20219;-58
2023/09/28 01:35:32;;;;;;;17.33;15.23;;;15.90;99.90;;;-141.84;88.45;20265.03;4979027;28;20238;-59
2023/09/28 01:38:17;;;;;;;17.25;15.45;;;15.90;99.90;;;-141.84;88.53;20271.16;4985821;28;20297;-59
2023/09/28 01:40:48;;;;;;;17.17;15.38;;;15.90;99.90;;;-141.84;88.44;20256.91;4986109;28;20259;-59
2023/09/28 01:43:16;;;;;;;15.68;14.05;;;15.90;99.90;;;-141.84;88.26;20248.78;4986055;28;20323;-59
2023/09/28 01:45:45;;;;;;;16.00;13.73;;;15.90;99.90;;;-141.84;88.33;20285.38;4977166;28;20726;-59
2023/09/28 01:48:12;;;;;;;16.90;15.23;;;15.90;99.90;;;-141.84;88.36;20256.91;4984888;28;20235;-58
2023/09/28 01:50:40;;;;;;;16.13;14.43;;;15.90;99.90;;;-141.84;88.36;20242.69;4986086;28;20590;-59
2023/09/28 01:53:07;;;;;;;18.70;14.30;;;15.90;99.90;;;-141.84;88.38;20252.84;4985904;28;20227;-59
2023/09/28 01:55:37;;;;;;;16.38;14.77;;;15.90;99.90;;;-141.84;88.46;20263.00;4978599;28;20227;-58
2023/09/28 01:58:07;;;;;;;18.15;14.77;;;15.90;99.90;;;-141.84;88.03;20265.03;4986035;28;20243;-59
2023/09/28 02:00:37;;;;;;;18.83;14.68;;;15.90;99.90;;;-141.84;87.67;20254.88;4985300;28;20231;-58
2023/09/28 02:03:05;;;;;;;14.85;13.27;;;15.90;99.90;;;-141.84;87.64;20260.97;4985509;28;20298;-58
2023/09/28 02:05:33;;;;;;;16.40;14.70;;;15.90;99.90;;;-141.84;87.16;20265.03;4978025;28;20604;-60
2023/09/28 02:08:02;;;;;;;17.45;13.98;;;16.00;99.90;;;-141.84;87.53;20281.31;4985477;28;20746;-58
2023/09/28 02:10:30;;;;;;;17.00;14.00;;;16.00;99.90;;;-141.84;87.33;20277.25;4986149;28;20324;-59
2023/09/28 02:12:59;;;;;;;16.13;14.43;;;15.90;99.90;;;-141.84;87.63;20283.34;4968158;28;20232;-58
2023/09/28 02:15:27;;;;;;;17.63;13.88;;;15.90;99.90;;;-141.84;87.71;20267.09;4958806;28;20231;-57
2023/09/28 02:17:54;;;;;;;15.77;14.02;;;15.90;99.90;;;-141.84;87.69;20254.88;4966087;28;20315;-58
2023/09/28 02:20:23;;;;;;;16.30;14.48;;;15.90;99.90;;;-141.84;87.62;20303.66;4979700;28;20235;-58
2023/09/28 02:22:52;;;;;;;15.80;14.20;;;15.90;99.90;;;-141.84;87.67;20236.59;4985197;28;20302;-58
2023/09/28 02:25:23;;;;;;;16.90;13.82;;;15.90;99.90;;;-141.84;87.88;20232.53;4982519;28;20238;-61
2023/09/28 02:27:52;;;;;;;15.80;14.20;;;15.90;99.90;;;-141.84;87.83;20260.97;4985073;28;20231;-60
2023/09/28 02:30:25;;;;;;;15.75;14.02;;;15.80;99.90;;;-141.84;88.08;20260.97;4985241;28;20226;-58
2023/09/28 02:32:55;;;;;;;16.30;14.60;;;15.80;99.90;;;-141.84;87.99;20214.22;4984841;28;20286;-60
2023/09/28 02:35:24;;;;;;;15.80;13.80;;;15.80;99.90;;;-141.84;88.29;20208.13;4977613;28;20289;-59
2023/09/28 02:37:53;;;;;;;16.13;14.40;;;15.80;99.90;;;-141.84;88.36;20228.47;4984941;28;20714;-59
2023/09/28 02:40:23;;;;;;;16.27;14.55;;;15.70;99.90;;;-141.84;88.48;20189.84;4985059;28;20231;-59
2023/09/28 02:42:51;;;;;;;15.63;14.02;;;15.70;99.90;;;-141.84;88.63;20197.97;4984919;28;20787;-58
2023/09/28 02:45:21;;;;;;;16.30;14.07;;;15.70;99.90;;;-141.84;88.68;20200.00;4983907;28;20676;-57
2023/09/28 02:47:50;;;;;;;15.63;14.02;;;15.60;99.90;;;-141.84;88.68;20212.19;4984778;28;20651;-59
2023/09/28 02:50:19;;;;;;;15.90;13.93;;;15.60;99.90;;;-141.84;88.73;20200.00;4984591;28;20227;-58
2023/09/28 02:52:47;;;;;;;17.10;15.10;;;15.60;99.90;;;-141.84;88.82;20214.22;4984476;28;20235;-60
2023/09/28 02:55:17;;;;;;;15.40;13.85;;;15.70;99.90;;;-141.84;88.65;20218.31;4984828;28;20242;-59
2023/09/28 02:57:46;;;;;;;16.15;14.48;;;15.60;99.90;;;-141.84;87.81;20265.03;4979780;28;20243;-59
2023/09/28 03:00:19;;;;;;;15.93;14.32;;;15.70;99.90;;;-141.84;88.27;20204.06;4984583;28;20297;-59
2023/09/28 03:02:49;;;;;;;15.65;14.02;;;15.70;99.90;;;-141.84;88.61;20193.91;4984661;28;20223;-59
2023/09/28 03:05:18;;;;;;;15.50;13.95;;;15.60;99.90;;;-141.84;88.93;20187.81;4984165;28;20247;-61
2023/09/28 03:07:46;;;;;;;16.38;14.68;;;15.60;99.90;;;-141.84;89.12;20204.06;4979588;28;20321;-59
2023/09/28 03:10:15;;;;;;;16.08;14.32;;;15.60;99.90;;;-141.84;89.23;20189.84;4983908;28;20231;-60
2023/09/28 03:12:45;;;;;;;17.02;15.23;;;15.60;99.90;;;-141.84;89.17;20185.78;4968827;28;20692;-60
2023/09/28 03:15:13;;;;;;;16.30;14.48;;;15.50;99.90;;;-141.84;89.54;20189.84;4964843;28;20708;-61
2023/09/28 03:17:41;;;;;;;16.02;14.30;;;15.50;99.90;;;-141.84;89.74;20143.09;4957108;28;20674;-60
2023/09/28 03:20:14;;;;;;;16.17;14.50;;;15.40;99.90;;;-141.84;90.02;20151.22;4976453;28;20239;-59
2023/09/28 03:22:43;;;;;;;16.90;15.13;;;15.40;99.90;;;-141.84;90.44;20175.63;4983992;28;20393;-60
2023/09/28 03:25:16;;;;;;;14.75;13.35;;;15.40;99.90;;;-141.84;90.56;20147.16;4983848;28;20718;-60
2023/09/28 03:27:45;;;;;;;17.85;15.70;;;15.40;99.90;;;-141.84;90.45;20149.19;4975869;28;20239;-60
2023/09/28 03:30:15;;;;;;;17.48;15.25;;;15.40;99.90;;;-141.84;90.50;20171.56;4983648;28;20274;-60
2023/09/28 03:32:43;;;;;;;17.05;14.88;;;15.30;99.90;;;-141.84;90.73;20104.47;4983975;28;20307;-60
2023/09/28 03:35:13;;;;;;;17.45;14.95;;;15.40;99.90;;;-141.84;90.75;20141.06;4983461;28;20750;-61
2023/09/28 03:37:42;;;;;;;16.75;14.90;;;15.30;99.90;;;-141.84;90.78;20151.22;4975589;28;20290;-60
2023/09/28 03:40:13;;;;;;;16.90;15.18;;;15.30;99.90;;;-141.84;90.82;20134.97;4983234;28;20570;-59
2023/09/28 03:42:43;;;;;;;16.33;14.63;;;15.30;99.90;;;-141.84;91.02;20143.09;4983752;28;20285;-59
2023/09/28 03:45:16;;;;;;;18.63;15.90;;;15.30;99.90;;;-141.84;91.26;20118.69;4983296;28;20239;-60
2023/09/28 03:47:45;;;;;;;17.17;15.40;;;15.30;99.90;;;-141.84;91.00;20118.69;4975787;28;20658;-60
2023/09/28 03:50:15;;;;;;;17.27;15.57;;;15.30;99.90;;;-141.84;91.03;20161.38;4983017;28;20231;-59
2023/09/28 03:52:44;;;;;;;18.02;15.20;;;15.30;99.90;;;-141.84;91.14;20151.22;4983268;28;20227;-61
2023/09/28 03:55:15;;;;;;;19.33;15.95;;;15.30;99.90;;;-141.84;91.28;20112.59;4983143;28;20579;-61
2023/09/28 03:57:44;;;;;;;19.83;16.38;;;15.30;99.90;;;-141.84;91.42;20122.78;4975940;28;20243;-60
2023/09/28 04:00:15;;;;;;;17.08;15.10;;;15.30;99.90;;;-141.84;91.34;20155.28;4983248;28;20701;-60
2023/09/28 04:02:46;;;;;;;17.88;15.32;;;15.30;99.90;;;-141.84;91.43;20096.34;4983611;28;20266;-60
2023/09/28 04:05:23;;;;;;;17.70;15.80;;;;;;;-141.84;91.59;20130.91;4983189;28;20230;-60
2023/09/28 04:07:51;;;;;;;19.35;15.88;;;;;;;-141.84;91.38;20130.91;4983171;28;20314;-60
2023/09/28 04:10:21;;;;;;;18.00;16.20;;;15.20;99.90;;;-141.84;90.70;20147.16;4982570;28;20273;-60
2023/09/28 04:12:52;;;;;;;17.98;15.77;;;;;;;-141.84;90.88;20151.22;4966997;28;20228;-60
2023/09/28 04:15:22;;;;;;;17.70;15.82;;;;;;;-141.84;91.21;20137.00;4961943;28;20294;-61
2023/09/28 04:17:51;;;;;;;16.58;14.82;;;;;;;-141.84;91.40;20149.19;4964126;28;20224;-60
2023/09/28 04:20:21;;;;;;;18.17;16.30;;;;;;;-141.84;91.72;20088.22;4979632;28;20643;-59
2023/09/28 04:22:49;;;;;;;18.45;16.13;;;;;;;-141.84;92.01;20094.31;4982552;28;20243;-60
2023/09/28 04:25:21;;;;;;;17.33;15.50;;;;;;;-141.84;92.30;20078.06;4983091;28;20602;-59
2023/09/28 04:27:49;;;;;;;17.65;15.85;;;;;;;-141.84;92.44;20074.00;4980133;28;20245;-59
2023/09/28 04:30:18;;;;;;;17.52;15.73;;;;;;;-141.84;92.51;20065.84;4983071;28;20215;-59
2023/09/28 04:32:51;;;;;;;17.98;15.95;;;;;;;-141.84;92.55;20086.19;4983052;28;20231;-60
2023/09/28 04:35:21;;;;;;;17.52;15.75;;;;;;;-141.84;92.68;20059.75;4982870;28;20223;-60
2023/09/28 04:37:50;;;;;;;18.15;16.25;;;;;;;-141.84;92.17;20082.13;4980741;28;20463;-61
2023/09/28 04:40:24;;;;;;;19.38;16.70;;;;;;;-141.84;92.30;20074.00;4982868;28;20246;-59
2023/09/28 04:42:53;;;;;;;18.45;16.27;;;;;;;-141.84;92.72;20114.63;4982992;28;20219;-61
2023/09/28 04:45:22;;;;;;;18.10;15.90;;;14.90;99.90;;;-141.84;92.83;20013.00;4980671;28;20663;-59
2023/09/28 04:47:50;;;;;;;19.60;16.65;;;14.90;99.90;;;-141.84;93.10;20019.13;4981223;28;20290;-62
2023/09/28 04:50:18;;;;;;;19.88;17.02;;;14.80;99.90;;;-141.84;93.27;20021.16;4981055;28;20242;-61
2023/09/28 04:52:48;;;;;;;21.60;16.67;;;14.80;99.90;;;-141.84;93.13;20049.59;4982309;28;20735;-59
2023/09/28 04:55:16;;;;;;;19.27;16.33;;;14.80;99.90;;;-141.84;93.34;19986.59;4982822;28;20265;-62
2023/09/28 04:57:45;;;;;;;19.55;17.58;;;14.70;99.90;;;-141.84;93.42;20080.09;4975418;28;20235;-60
2023/09/28 05:00:16;;;;;;;21.45;17.98;;;14.80;99.90;;;-141.84;93.16;20041.47;4982512;28;20239;-61
2023/09/28 05:02:47;;;;;;;19.67;17.58;;;14.80;99.90;;;-141.84;92.92;20000.81;4982562;28;20226;-59
2023/09/28 05:05:16;;;;;;;19.27;17.27;;;14.80;99.90;;;-141.84;93.17;20069.94;4982503;28;20653;-60
2023/09/28 05:07:46;;;;;;;19.63;17.52;;;14.80;99.90;;;-141.84;93.05;20049.59;4974770;28;20245;-60
2023/09/28 05:10:16;;;;;;;18.92;16.90;;;14.90;99.90;;;-141.84;93.01;20078.06;4982938;28;20239;-61
2023/09/28 05:12:44;;;;;;;18.67;16.77;;;14.90;99.90;;;-141.84;92.96;20069.94;4967644;28;20259;-61
2023/09/28 05:15:13;;;;;;;19.13;17.20;;;14.90;99.90;;;-141.84;92.83;20071.97;4968951;28;20266;-61
2023/09/28 05:17:41;;;;;;;19.25;17.25;;;15.00;99.90;;;-141.84;92.89;20080.09;4975246;28;20230;-60
2023/09/28 05:20:11;;;;;;;18.73;16.92;;;15.00;99.90;;;-141.84;92.98;20049.59;4994683;28;20234;-59
2023/09/28 05:22:40;;;;;;;19.70;17.70;;;15.00;99.90;;;-141.84;92.78;20061.78;4991069;28;20239;-60
2023/09/28 05:25:09;;;;;;;19.67;17.52;;;15.10;99.90;;;-141.84;91.92;20080.09;4985923;28;20659;-59
2023/09/28 05:27:38;;;;;;;19.25;17.25;;;15.10;99.90;;;-141.84;91.51;20114.63;4978387;28;20231;-60
2023/09/28 05:30:08;;;;;;;19.90;17.80;;;15.20;99.90;;;-141.84;91.32;20118.69;4986104;28;20691;-60
2023/09/28 05:32:36;;;;;;;19.33;17.13;;;15.30;99.90;;;-141.84;90.39;20139.03;4986482;28;20212;-60
2023/09/28 05:35:06;;;;;;;20.00;17.77;;;15.30;99.90;;;-141.84;89.96;20161.38;4986119;28;20223;-60
2023/09/28 05:37:34;;;;;;;18.70;16.67;;;15.40;99.90;;;-141.84;89.46;20171.56;4978155;28;20223;-60
2023/09/28 05:40:04;;;;;;;21.05;17.30;;;15.50;99.90;;;-141.84;89.05;20151.22;4985815;28;20234;-60
2023/09/28 05:42:34;;;;;;;20.08;16.65;;;15.50;99.90;;;-141.84;89.43;20161.38;4985793;28;20249;-60
2023/09/28 05:45:04;;;;;;;17.98;15.93;;;15.60;99.90;;;-141.84;89.52;20169.53;4986153;28;20294;-59
2023/09/28 05:47:34;;;;;;;18.30;16.40;;;15.70;99.90;;;-141.84;89.43;20210.16;4977732;28;20219;-60
2023/09/28 05:50:04;;;;;;;18.95;16.95;;;15.70;99.90;;;-141.84;87.58;20232.53;4995775;28;20234;-60
2023/09/28 05:52:33;;;;;;;22.05;18.60;;;15.80;99.90;;;-141.84;86.33;20254.88;5004977;28;20796;-62
2023/09/28 05:55:01;;;;;;;19.55;16.52;;;16.00;99.90;;;-141.84;85.45;20313.84;5002130;28;20227;-62
2023/09/28 05:57:29;;;;;;;17.77;15.88;;;16.10;99.90;;;-141.84;85.74;20273.19;4976181;28;20234;-61
2023/09/28 05:59:58;;;;;;;18.73;16.83;;;16.20;99.90;;;-141.84;85.45;20301.63;4983591;28;20266;-60
2023/09/28 06:02:27;;;;;;;18.77;16.67;;;16.20;99.90;;;-141.84;84.69;20305.69;4984864;28;20329;-60
2023/09/28 06:04:55;;;;;;;19.40;15.23;;;16.30;99.90;;;-141.84;84.62;20340.25;4984971;28;20246;-61
2023/09/28 06:07:24;;;;;;;17.52;15.65;;;16.50;99.90;;;-141.84;84.51;20352.44;4972841;28;20228;-61
2023/09/28 06:09:53;;;;;;;17.63;15.20;;;16.60;99.90;;;-141.84;82.03;20445.94;4974950;28;20224;-61
2023/09/28 06:12:21;;;;;;;18.60;15.02;;;16.70;99.90;;;-141.84;81.38;20452.06;4984737;28;20226;-61
2023/09/28 06:14:50;;;;;;;17.05;15.32;;;16.80;99.90;;;-141.84;81.75;20482.53;4985159;28;20311;-62
2023/09/28 06:17:18;;;;;;;17.30;14.45;;;17.00;99.90;;;-141.84;80.62;20500.84;4985024;28;20314;-61
2023/09/28 06:19:47;;;;;;;17.05;15.30;;;17.10;99.90;;;-141.84;79.34;20559.78;4986614;28;20269;-62
2023/09/28 06:22:25;;;;;;;17.35;15.63;;;17.30;99.90;;;-141.84;78.82;20578.09;5004417;28;20314;-61
2023/09/28 06:24:54;;;;;;;21.02;16.17;;;17.40;99.90;;;-141.84;78.17;20606.53;5004944;28;20314;-60
2023/09/28 06:27:26;;;;;;;16.60;14.68;;;17.50;99.90;;;-141.84;78.82;20620.78;4981346;28;20203;-59
2023/09/28 06:29:54;;;;;;;18.80;16.67;;;17.50;99.90;;;-141.84;78.49;20584.19;4985632;28;20208;-59
2023/09/28 06:32:23;;;;;;;16.88;14.98;;;17.50;99.90;;;-141.84;78.12;20602.47;4983958;28;20242;-59
2023/09/28 06:34:53;;;;;;;17.50;15.45;;;17.50;99.90;;;-141.84;78.27;20592.31;4984683;28;20786;-60
2023/09/28 06:37:21;;;;;;;16.52;14.93;;;17.60;99.90;;;-141.84;78.00;20641.09;4983040;28;20237;-60
2023/09/28 06:39:49;;;;;;;17.25;15.48;;;17.70;99.90;;;-141.84;76.42;20718.34;4984719;28;20706;-59
2023/09/28 06:42:17;;;;;;;15.95;14.40;;;17.90;99.90;;;-141.84;76.28;20734.59;4984521;28;20249;-59
2023/09/28 06:44:48;;;;;;;16.75;15.05;;;17.90;99.90;;;-141.84;75.49;20724.44;4987807;28;20258;-61
2023/09/28 06:47:17;;;;;;;15.60;13.95;;;18.10;99.90;;;-141.84;74.97;20754.94;4983956;28;20348;-60
2023/09/28 06:49:46;;;;;;;18.77;15.55;;;18.20;99.90;;;-141.84;74.68;20830.16;4986868;28;20237;-61
2023/09/28 06:52:15;;;;;;;17.55;14.85;;;18.30;99.90;;;-141.84;73.92;20864.72;4993183;28;20718;-60
2023/09/28 06:54:43;;;;;;;16.48;14.77;;;18.40;99.90;;;-141.84;74.06;20820.00;4984611;28;20229;-60
2023/09/28 06:57:12;;;;;;;15.05;13.57;;;18.40;99.90;;;-141.84;74.36;20795.59;4984470;28;20269;-61
2023/09/28 06:59:40;;;;;;;14.80;13.40;;;18.50;99.90;;;-141.84;74.01;20852.50;4976993;28;20356;-60
2023/09/28 07:02:09;;;;;;;16.10;14.35;;;18.50;99.90;;;-141.84;73.63;20876.91;4984398;28;20811;-59
2023/09/28 07:04:37;;;;;;;15.20;13.60;;;18.60;99.90;;;-141.84;73.33;20899.28;4984189;28;20324;-60
2023/09/28 07:07:06;;;;;;;14.18;12.50;;;18.70;99.90;;;-141.84;73.69;20872.84;4984284;28;20717;-60
2023/09/28 07:09:38;;;;;;;15.88;13.43;;;18.70;99.90;;;-141.84;74.14;20901.31;4977377;28;20277;-59
2023/09/28 07:12:22;;;;;;;16.48;14.27;;;18.70;99.90;;;-141.84;73.64;20842.34;4983936;28;20217;-61
2023/09/28 07:14:51;;;;;;;15.40;13.48;;;18.70;99.90;;;-141.84;74.06;20832.19;4984091;28;20218;-60
2023/09/28 07:17:19;;;;;;;14.45;13.05;;;18.60;99.90;;;-141.84;74.36;20846.41;4983905;28;20741;-61
2023/09/28 07:19:48;;;;;;;14.32;12.75;;;18.60;99.90;;;-141.84;74.61;20844.38;4992804;28;20587;-61
2023/09/28 07:22:16;;;;;;;15.05;13.30;;;18.60;99.90;;;-141.84;75.05;20785.44;5003369;28;20238;-60
2023/09/28 07:24:46;;;;;;;17.42;13.80;;;18.60;99.90;;;-141.84;75.16;20824.06;5003134;28;20252;-59
2023/09/28 07:27:14;;;;;;;15.13;12.77;;;18.60;99.90;;;-141.84;75.15;20838.28;5003056;28;20213;-62
2023/09/28 07:29:42;;;;;;;15.20;13.70;;;18.70;99.90;;;-141.84;74.89;20852.50;4996161;28;20451;-61
2023/09/28 07:32:10;;;;;;;14.52;13.07;;;18.70;99.90;;;-141.84;74.96;20824.06;5004017;28;20235;-60
2023/09/28 07:34:39;;;;;;;14.13;12.70;;;18.60;99.90;;;-141.84;75.46;20830.16;4985909;28;20289;-60
2023/09/28 07:37:07;;;;;;;14.60;13.10;;;18.60;99.90;;;-141.84;75.77;20824.06;4984248;28;20274;-62
2023/09/28 07:39:35;;;;;;;14.32;11.18;;;18.60;99.90;;;-141.84;76.00;20844.38;4976202;28;20223;-62
2023/09/28 07:42:07;;;;;;;16.33;14.20;;;18.70;99.90;;;-141.84;76.07;20785.44;4984325;28;20258;-61
2023/09/28 07:44:35;;;;;;;14.07;12.68;;;18.60;99.90;;;-141.84;76.19;20793.56;4983593;28;20259;-61
2023/09/28 07:47:03;;;;;;;15.10;13.25;;;18.60;99.90;;;-141.84;76.03;20785.44;4983035;28;20226;-61
2023/09/28 07:49:32;;;;;;;13.93;12.52;;;18.60;99.90;;;-141.84;76.03;20805.75;4981759;28;20443;-62
2023/09/28 07:52:00;;;;;;;13.82;12.40;;;18.60;99.90;;;-141.84;75.86;20842.34;5002816;28;20288;-61
2023/09/28 07:54:28;;;;;;;13.77;12.38;;;18.80;99.90;;;-141.84;75.26;20842.34;5003549;28;20229;-61
2023/09/28 07:56:56;;;;;;;13.95;12.55;;;18.90;99.90;;;-141.84;74.87;20913.50;5003299;28;20298;-60
2023/09/28 07:59:26;;;;;;;13.80;12.23;;;19.00;99.90;;;-141.84;74.88;20927.72;4994673;28;20753;-61
2023/09/28 08:01:54;;;;;;;13.10;11.80;;;19.10;99.90;;;-141.84;74.61;20960.25;4994258;28;20232;-60
2023/09/28 08:04:23;;;;;;;14.02;11.90;;;19.30;99.90;;;-141.84;73.67;20972.47;4983299;28;20301;-60
2023/09/28 08:06:51;;;;;;;13.98;12.60;;;19.40;99.90;;;-141.84;72.48;21065.97;4983326;28;20580;-60
2023/09/28 08:09:23;;;;;;;13.70;12.27;;;19.50;99.90;;;-141.84;72.42;21039.53;4979597;28;20207;-60
2023/09/28 08:11:51;;;;;;;15.30;12.88;;;19.60;99.90;;;-141.84;72.09;21063.94;4975244;28;20569;-60
2023/09/28 08:14:21;;;;;;;15.77;12.18;;;19.70;99.90;;;-141.84;71.88;21102.56;4963687;28;20227;-59
2023/09/28 08:16:51;;;;;;;13.27;11.95;;;19.80;99.90;;;-141.84;71.22;21155.44;4964669;28;20236;-59
2023/09/28 08:19:20;;;;;;;15.25;11.95;;;20.00;99.90;;;-141.84;70.76;21175.75;4988100;28;20222;-60
2023/09/28 08:21:48;;;;;;;16.35;11.60;;;20.10;99.90;;;-141.84;70.26;21181.84;5000983;28;20262;-60
2023/09/28 08:24:16;;;;;;;12.55;11.25;;;20.20;99.90;;;-141.84;70.41;21212.34;5002238;28;20214;-60
2023/09/28 08:26:48;;;;;;;13.07;11.68;;;20.30;99.90;;;-141.84;69.18;21244.88;5002873;28;20238;-61
2023/09/28 08:29:18;;;;;;;12.80;11.07;;;20.40;99.90;;;-141.84;68.85;21257.09;4998241;28;20297;-61
2023/09/28 08:31:46;;;;;;;12.43;10.95;;;20.50;99.90;;;-141.84;68.45;21297.75;4977395;28;20238;-59
2023/09/28 08:34:15;;;;;;;13.15;11.60;;;20.60;99.90;;;-141.84;68.54;21324.19;4979644;28;20235;-61
2023/09/28 08:37:04;;;;;;;13.40;11.90;;;20.70;99.90;;;-141.84;67.35;21362.81;4983625;28;20238;-61
2023/09/28 08:39:32;;;;;;;13.65;11.32;;;20.90;99.90;;;-141.84;66.52;21417.69;4975986;28;20735;-62
2023/09/28 08:42:04;;;;;;;12.68;11.38;;;20.90;99.90;;;-141.84;67.25;21375.00;4982382;28;20266;-63
2023/09/28 08:44:33;;;;;;;11.93;10.82;;;21.00;99.90;;;-141.84;66.96;21381.09;4982441;28;20234;-63
2023/09/28 08:47:03;;;;;;;13.02;10.98;;;21.00;99.90;;;-141.84;67.73;21379.06;4982342;28;20254;-61
2023/09/28 08:49:37;;;;;;;11.65;10.27;;;20.90;99.90;;;-141.84;68.15;21350.59;4962658;28;20237;-62
2023/09/28 08:52:05;;;;;;;13.25;10.57;;;20.90;99.90;;;-141.84;68.24;21340.44;4982897;28;20318;-62
2023/09/28 08:54:34;;;;;;;12.05;10.75;;;20.90;99.90;;;-141.84;67.64;21385.16;4972010;28;20263;-62
2023/09/28 08:57:02;;;;;;;12.50;10.93;;;21.00;99.90;;;-141.84;67.28;21438.03;4967857;28;20295;-62
2023/09/28 08:59:32;;;;;;;12.85;10.27;;;21.10;99.90;;;-141.84;66.84;21480.72;4977462;28;20242;-61
2023/09/28 09:02:02;;;;;;;12.75;10.32;;;21.20;99.90;;;-141.84;66.79;21511.22;4984033;28;20644;-62
2023/09/28 09:04:34;;;;;;;11.30;10.15;;;21.30;99.90;;;-141.84;66.20;21533.59;4986734;28;20231;-62
2023/09/28 09:07:05;;;;;;;10.45;9.35;;;21.40;99.90;;;-141.84;65.27;21547.81;4986646;28;20226;-62
2023/09/28 09:09:37;;;;;;;9.73;8.73;;;21.50;99.90;;;-141.84;64.62;21590.53;4978919;28;20226;-62
2023/09/28 09:12:10;;;;;;;11.25;9.52;;;21.70;99.90;;;-141.84;64.38;21623.06;4986635;28;20211;-62
2023/09/28 09:14:39;;;;;;;14.52;8.75;;;21.80;99.90;;;-141.84;63.91;21639.31;4982311;28;20508;-62
2023/09/28 09:17:08;;;;;;;10.38;8.45;;;21.90;99.90;;;-141.84;63.26;21706.44;4986118;28;20254;-62
2023/09/28 09:19:43;;;;;;;10.13;8.48;;;22.00;99.90;;;-141.84;62.26;21795.88;4986172;28;20226;-62
2023/09/28 09:22:26;;;;;;;7.38;6.72;;;22.10;99.90;;;-141.84;61.22;21785.72;4989980;28;20231;-60
2023/09/28 09:24:56;;;;;;;8.57;7.13;;;22.30;99.90;;;-141.84;59.95;21820.28;4986358;28;20664;-60
2023/09/28 09:27:29;;;;;;;8.38;6.60;;;22.40;99.90;;;-141.84;59.99;21867.06;4978854;28;20589;-62
2023/09/28 09:29:58;;;;;;;6.95;6.28;;;22.30;99.90;;;-141.84;58.77;21846.72;4986478;28;20559;-61
2023/09/28 09:32:28;;;;;;;7.10;6.30;;;22.50;99.90;;;-141.84;58.51;21899.59;4986033;28;20598;-60
2023/09/28 09:34:59;;;;;;;8.38;6.30;;;22.60;99.90;;;-141.84;57.17;21907.72;4986277;28;20227;-61
2023/09/28 09:37:27;;;;;;;6.15;5.55;;;22.60;99.90;;;-141.84;57.21;21921.97;4969078;28;20283;-60
2023/09/28 09:40:11;;;;;;;7.67;5.40;;;22.70;99.90;;;-141.84;56.30;22007.38;4977314;28;20237;-60
2023/09/28 09:42:41;;;;;;;6.13;5.53;;;22.80;99.90;;;-141.84;55.93;22050.06;4985954;28;20243;-63
2023/09/28 09:45:12;;;;;;;9.40;5.07;;;22.90;99.90;;;-141.84;55.29;22041.94;4985867;28;20422;-63
2023/09/28 09:47:48;;;;;;;5.80;5.28;;;23.00;99.90;;;-141.84;55.76;22056.19;4978214;28;20236;-61
2023/09/28 09:50:19;;;;;;;7.28;5.25;;;23.00;99.90;;;-141.84;55.81;22066.34;4998048;28;20248;-60
2023/09/28 09:52:47;;;;;;;6.38;5.70;;;22.90;99.90;;;-141.84;55.04;22058.22;5005444;28;20317;-62
2023/09/28 09:55:16;;;;;;;7.03;6.32;;;23.10;99.90;;;-141.84;55.47;22062.28;4990760;28;20782;-61
2023/09/28 09:57:47;;;;;;;7.13;5.65;;;23.10;99.90;;;-141.84;55.92;22009.41;4974312;28;20270;-61
2023/09/28 10:00:22;;;;;;;6.43;5.78;;;23.00;99.90;;;-141.84;56.49;22021.59;4985170;28;20314;-60
2023/09/28 10:02:55;;;;;;;6.28;5.45;;;23.00;99.90;;;-141.84;56.79;22017.53;4985894;28;20272;-61
2023/09/28 10:05:27;;;;;;;8.43;5.78;;;23.00;99.90;;;-141.84;55.82;22098.88;4961164;28;20673;-60
2023/09/28 10:07:57;;;;;;;8.02;5.22;;;23.00;99.90;;;-141.84;55.50;22050.06;4965306;28;20335;-60